sensor_id;sensor_type;location;lat;lon;timestamp;P1;durP1;ratioP1;P2;durP2;ratioP2
44165;SDS011;30476;53.468;9.826;2023-02-01T00:01:18;13.90;;;3.20;;
44165;SDS011;30476;53.468;9.826;2023-02-01T00:03:43;13.77;;;2.20;;
44165;SDS011;30476;53.468;9.826;2023-02-01T00:06:09;16.00;;;3.60;;
44165;SDS011;30476;53.468;9.826;2023-02-01T00:08:35;9.90;;;2.90;;
44165;SDS011;30476;53.468;9.826;2023-02-01T00:11:05;11.57;;;2.20;;
44165;SDS011;30476;53.468;9.826;2023-02-01T00:13:34;11.80;;;3.67;;
44165;SDS011;30476;53.468;9.826;2023-02-01T00:16:09;14.87;;;2.80;;
44165;SDS011;30476;53.468;9.826;2023-02-01T00:18:38;12.30;;;2.60;;
44165;SDS011;30476;53.468;9.826;2023-02-01T00:21:04;13.23;;;2.57;;
44165;SDS011;30476;53.468;9.826;2023-02-01T00:23:33;16.33;;;4.33;;
44165;SDS011;30476;53.468;9.826;2023-02-01T00:26:01;13.23;;;3.47;;
44165;SDS011;30476;53.468;9.826;2023-02-01T00:28:28;10.17;;;3.17;;
44165;SDS011;30476;53.468;9.826;2023-02-01T00:30:58;14.77;;;2.80;;
44165;SDS011;30476;53.468;9.826;2023-02-01T00:33:25;16.73;;;3.87;;
44165;SDS011;30476;53.468;9.826;2023-02-01T00:35:51;12.53;;;3.30;;
44165;SDS011;30476;53.468;9.826;2023-02-01T00:38:21;17.80;;;2.87;;
44165;SDS011;30476;53.468;9.826;2023-02-01T00:40:46;22.63;;;3.60;;
44165;SDS011;30476;53.468;9.826;2023-02-01T00:43:12;14.47;;;3.93;;
44165;SDS011;30476;53.468;9.826;2023-02-01T00:45:38;14.07;;;2.97;;
44165;SDS011;30476;53.468;9.826;2023-02-01T00:48:04;20.00;;;4.60;;
44165;SDS011;30476;53.468;9.826;2023-02-01T00:50:30;13.10;;;3.40;;
44165;SDS011;30476;53.468;9.826;2023-02-01T00:52:56;15.03;;;2.57;;
44165;SDS011;30476;53.468;9.826;2023-02-01T00:55:21;17.60;;;3.73;;
44165;SDS011;30476;53.468;9.826;2023-02-01T00:57:47;13.13;;;4.07;;
44165;SDS011;30476;53.468;9.826;2023-02-01T01:00:13;11.40;;;4.10;;
44165;SDS011;30476;53.468;9.826;2023-02-01T01:02:39;10.53;;;2.87;;
44165;SDS011;30476;53.468;9.826;2023-02-01T01:05:06;13.23;;;5.20;;
44165;SDS011;30476;53.468;9.826;2023-02-01T01:07:32;18.67;;;3.50;;
44165;SDS011;30476;53.468;9.826;2023-02-01T01:09:58;15.60;;;3.10;;
44165;SDS011;30476;53.468;9.826;2023-02-01T01:12:23;10.20;;;2.33;;
44165;SDS011;30476;53.468;9.826;2023-02-01T01:14:49;21.90;;;4.83;;
44165;SDS011;30476;53.468;9.826;2023-02-01T01:17:15;21.13;;;4.13;;
44165;SDS011;30476;53.468;9.826;2023-02-01T01:19:41;18.97;;;2.57;;
44165;SDS011;30476;53.468;9.826;2023-02-01T01:22:07;17.33;;;3.37;;
44165;SDS011;30476;53.468;9.826;2023-02-01T01:24:33;16.27;;;5.50;;
44165;SDS011;30476;53.468;9.826;2023-02-01T01:26:59;15.23;;;3.13;;
44165;SDS011;30476;53.468;9.826;2023-02-01T01:29:25;14.27;;;3.60;;
44165;SDS011;30476;53.468;9.826;2023-02-01T01:31:50;18.23;;;4.40;;
44165;SDS011;30476;53.468;9.826;2023-02-01T01:34:16;19.70;;;3.40;;
44165;SDS011;30476;53.468;9.826;2023-02-01T01:36:42;16.37;;;4.53;;
44165;SDS011;30476;53.468;9.826;2023-02-01T01:39:08;12.60;;;3.53;;
44165;SDS011;30476;53.468;9.826;2023-02-01T01:41:34;20.43;;;3.40;;
44165;SDS011;30476;53.468;9.826;2023-02-01T01:44:00;25.20;;;4.27;;
44165;SDS011;30476;53.468;9.826;2023-02-01T01:49:00;17.57;;;4.67;;
44165;SDS011;30476;53.468;9.826;2023-02-01T01:51:30;19.67;;;5.17;;
44165;SDS011;30476;53.468;9.826;2023-02-01T01:56:35;17.53;;;3.20;;
44165;SDS011;30476;53.468;9.826;2023-02-01T01:59:01;15.27;;;5.30;;
44165;SDS011;30476;53.468;9.826;2023-02-01T02:01:27;23.00;;;3.90;;
44165;SDS011;30476;53.468;9.826;2023-02-01T02:03:53;10.87;;;3.70;;
44165;SDS011;30476;53.468;9.826;2023-02-01T02:06:23;16.13;;;3.30;;
44165;SDS011;30476;53.468;9.826;2023-02-01T02:08:57;17.90;;;3.50;;
44165;SDS011;30476;53.468;9.826;2023-02-01T02:11:23;16.17;;;3.63;;
44165;SDS011;30476;53.468;9.826;2023-02-01T02:13:49;17.47;;;3.43;;
44165;SDS011;30476;53.468;9.826;2023-02-01T02:16:20;14.47;;;3.97;;
44165;SDS011;30476;53.468;9.826;2023-02-01T02:38:01;21.37;;;3.27;;
44165;SDS011;30476;53.468;9.826;2023-02-01T02:41:03;18.10;;;4.67;;
44165;SDS011;30476;53.468;9.826;2023-02-01T02:44:00;17.03;;;3.47;;
44165;SDS011;30476;53.468;9.826;2023-02-01T02:46:54;14.03;;;3.17;;
44165;SDS011;30476;53.468;9.826;2023-02-01T02:49:53;21.47;;;3.20;;
44165;SDS011;30476;53.468;9.826;2023-02-01T02:52:46;10.67;;;4.10;;
44165;SDS011;30476;53.468;9.826;2023-02-01T02:55:43;7.87;;;2.90;;
44165;SDS011;30476;53.468;9.826;2023-02-01T02:58:10;9.70;;;3.13;;
44165;SDS011;30476;53.468;9.826;2023-02-01T03:00:57;17.07;;;4.00;;
44165;SDS011;30476;53.468;9.826;2023-02-01T03:03:42;13.87;;;2.93;;
44165;SDS011;30476;53.468;9.826;2023-02-01T03:06:34;12.00;;;2.70;;
44165;SDS011;30476;53.468;9.826;2023-02-01T03:09:00;14.93;;;4.73;;
44165;SDS011;30476;53.468;9.826;2023-02-01T03:11:29;13.07;;;2.87;;
44165;SDS011;30476;53.468;9.826;2023-02-01T03:14:17;13.50;;;2.90;;
44165;SDS011;30476;53.468;9.826;2023-02-01T03:16:50;12.00;;;2.80;;
44165;SDS011;30476;53.468;9.826;2023-02-01T03:19:26;19.83;;;3.73;;
44165;SDS011;30476;53.468;9.826;2023-02-01T03:24:40;12.37;;;2.70;;
44165;SDS011;30476;53.468;9.826;2023-02-01T03:27:14;9.30;;;2.73;;
44165;SDS011;30476;53.468;9.826;2023-02-01T03:32:19;14.93;;;3.40;;
44165;SDS011;30476;53.468;9.826;2023-02-01T03:34:46;7.70;;;2.00;;
44165;SDS011;30476;53.468;9.826;2023-02-01T03:37:13;5.33;;;2.10;;
44165;SDS011;30476;53.468;9.826;2023-02-01T03:47:30;5.10;;;1.50;;
44165;SDS011;30476;53.468;9.826;2023-02-01T03:50:02;3.00;;;2.20;;
44165;SDS011;30476;53.468;9.826;2023-02-01T03:52:38;5.93;;;1.60;;
44165;SDS011;30476;53.468;9.826;2023-02-01T03:55:07;3.83;;;1.70;;
44165;SDS011;30476;53.468;9.826;2023-02-01T03:57:37;6.90;;;2.57;;
44165;SDS011;30476;53.468;9.826;2023-02-01T04:00:15;7.60;;;1.30;;
44165;SDS011;30476;53.468;9.826;2023-02-01T04:02:43;2.43;;;1.43;;
44165;SDS011;30476;53.468;9.826;2023-02-01T04:05:09;5.90;;;1.50;;
44165;SDS011;30476;53.468;9.826;2023-02-01T04:07:35;6.23;;;1.67;;
44165;SDS011;30476;53.468;9.826;2023-02-01T04:10:01;6.00;;;1.60;;
44165;SDS011;30476;53.468;9.826;2023-02-01T04:12:28;5.93;;;1.50;;
44165;SDS011;30476;53.468;9.826;2023-02-01T04:14:54;14.00;;;2.00;;
44165;SDS011;30476;53.468;9.826;2023-02-01T04:17:20;6.50;;;1.83;;
44165;SDS011;30476;53.468;9.826;2023-02-01T04:19:46;6.17;;;1.40;;
44165;SDS011;30476;53.468;9.826;2023-02-01T04:22:12;6.87;;;2.47;;
44165;SDS011;30476;53.468;9.826;2023-02-01T04:24:37;5.30;;;1.73;;
44165;SDS011;30476;53.468;9.826;2023-02-01T04:27:04;5.80;;;1.77;;
44165;SDS011;30476;53.468;9.826;2023-02-01T04:29:29;6.17;;;1.73;;
44165;SDS011;30476;53.468;9.826;2023-02-01T04:31:55;5.83;;;1.50;;
44165;SDS011;30476;53.468;9.826;2023-02-01T04:34:21;4.53;;;1.20;;
44165;SDS011;30476;53.468;9.826;2023-02-01T04:36:48;5.27;;;1.30;;
44165;SDS011;30476;53.468;9.826;2023-02-01T04:39:13;5.23;;;1.53;;
44165;SDS011;30476;53.468;9.826;2023-02-01T04:41:39;12.20;;;1.83;;
44165;SDS011;30476;53.468;9.826;2023-02-01T04:44:05;6.77;;;1.30;;
44165;SDS011;30476;53.468;9.826;2023-02-01T04:46:31;6.83;;;1.50;;
44165;SDS011;30476;53.468;9.826;2023-02-01T04:48:57;9.37;;;1.80;;
44165;SDS011;30476;53.468;9.826;2023-02-01T04:51:22;6.83;;;1.53;;
44165;SDS011;30476;53.468;9.826;2023-02-01T04:53:48;7.63;;;1.63;;
44165;SDS011;30476;53.468;9.826;2023-02-01T04:56:14;7.50;;;1.67;;
44165;SDS011;30476;53.468;9.826;2023-02-01T04:58:40;4.37;;;1.40;;
44165;SDS011;30476;53.468;9.826;2023-02-01T05:01:06;3.87;;;1.13;;
44165;SDS011;30476;53.468;9.826;2023-02-01T05:03:33;1.80;;;1.27;;
44165;SDS011;30476;53.468;9.826;2023-02-01T05:05:59;2.73;;;1.00;;
44165;SDS011;30476;53.468;9.826;2023-02-01T05:08:25;1.90;;;0.80;;
44165;SDS011;30476;53.468;9.826;2023-02-01T05:10:52;2.73;;;1.00;;
44165;SDS011;30476;53.468;9.826;2023-02-01T05:13:18;3.53;;;0.80;;
44165;SDS011;30476;53.468;9.826;2023-02-01T05:16:03;2.33;;;1.00;;
44165;SDS011;30476;53.468;9.826;2023-02-01T05:18:29;3.40;;;0.70;;
44165;SDS011;30476;53.468;9.826;2023-02-01T05:20:55;1.33;;;0.97;;
44165;SDS011;30476;53.468;9.826;2023-02-01T05:23:21;1.27;;;0.60;;
44165;SDS011;30476;53.468;9.826;2023-02-01T05:25:47;0.53;;;0.50;;
44165;SDS011;30476;53.468;9.826;2023-02-01T05:28:13;0.77;;;0.60;;
44165;SDS011;30476;53.468;9.826;2023-02-01T05:30:39;0.80;;;0.60;;
44165;SDS011;30476;53.468;9.826;2023-02-01T05:33:04;1.37;;;0.60;;
44165;SDS011;30476;53.468;9.826;2023-02-01T05:35:30;1.93;;;0.50;;
44165;SDS011;30476;53.468;9.826;2023-02-01T05:37:56;0.60;;;0.60;;
44165;SDS011;30476;53.468;9.826;2023-02-01T05:40:22;0.70;;;0.70;;
44165;SDS011;30476;53.468;9.826;2023-02-01T05:42:48;0.60;;;0.60;;
44165;SDS011;30476;53.468;9.826;2023-02-01T05:45:14;6.83;;;6.60;;
44165;SDS011;30476;53.468;9.826;2023-02-01T05:47:39;0.73;;;0.73;;
44165;SDS011;30476;53.468;9.826;2023-02-01T05:50:06;1.03;;;0.53;;
44165;SDS011;30476;53.468;9.826;2023-02-01T05:52:32;0.60;;;0.50;;
44165;SDS011;30476;53.468;9.826;2023-02-01T05:54:58;4.03;;;0.70;;
44165;SDS011;30476;53.468;9.826;2023-02-01T05:57:24;0.60;;;0.60;;
44165;SDS011;30476;53.468;9.826;2023-02-01T05:59:49;2.50;;;0.83;;
44165;SDS011;30476;53.468;9.826;2023-02-01T06:02:15;1.80;;;0.80;;
44165;SDS011;30476;53.468;9.826;2023-02-01T06:04:42;2.50;;;0.80;;
44165;SDS011;30476;53.468;9.826;2023-02-01T06:07:08;2.57;;;1.10;;
44165;SDS011;30476;53.468;9.826;2023-02-01T06:09:35;1.20;;;0.80;;
44165;SDS011;30476;53.468;9.826;2023-02-01T06:12:02;1.00;;;0.90;;
44165;SDS011;30476;53.468;9.826;2023-02-01T06:14:28;2.50;;;0.80;;
44165;SDS011;30476;53.468;9.826;2023-02-01T06:16:54;5.70;;;0.90;;
44165;SDS011;30476;53.468;9.826;2023-02-01T06:19:21;4.33;;;1.13;;
44165;SDS011;30476;53.468;9.826;2023-02-01T06:21:47;1.87;;;0.80;;
44165;SDS011;30476;53.468;9.826;2023-02-01T06:24:13;2.30;;;1.10;;
44165;SDS011;30476;53.468;9.826;2023-02-01T06:26:39;5.70;;;1.20;;
44165;SDS011;30476;53.468;9.826;2023-02-01T06:29:05;5.83;;;1.33;;
44165;SDS011;30476;53.468;9.826;2023-02-01T06:31:32;2.40;;;1.00;;
44165;SDS011;30476;53.468;9.826;2023-02-01T06:33:58;5.13;;;1.30;;
44165;SDS011;30476;53.468;9.826;2023-02-01T06:36:24;2.43;;;1.20;;
44165;SDS011;30476;53.468;9.826;2023-02-01T06:38:50;3.23;;;1.33;;
44165;SDS011;30476;53.468;9.826;2023-02-01T06:41:16;5.03;;;1.60;;
44165;SDS011;30476;53.468;9.826;2023-02-01T06:43:42;7.47;;;1.73;;
44165;SDS011;30476;53.468;9.826;2023-02-01T06:46:09;8.20;;;2.00;;
44165;SDS011;30476;53.468;9.826;2023-02-01T06:48:37;4.60;;;1.60;;
44165;SDS011;30476;53.468;9.826;2023-02-01T06:51:03;2.70;;;1.43;;
44165;SDS011;30476;53.468;9.826;2023-02-01T06:53:29;4.53;;;1.40;;
44165;SDS011;30476;53.468;9.826;2023-02-01T06:56:00;4.50;;;1.40;;
44165;SDS011;30476;53.468;9.826;2023-02-01T06:58:28;5.53;;;1.77;;
44165;SDS011;30476;53.468;9.826;2023-02-01T07:00:56;6.23;;;1.60;;
44165;SDS011;30476;53.468;9.826;2023-02-01T07:03:22;2.90;;;1.20;;
44165;SDS011;30476;53.468;9.826;2023-02-01T07:05:47;6.47;;;1.43;;
44165;SDS011;30476;53.468;9.826;2023-02-01T07:08:13;5.53;;;1.87;;
44165;SDS011;30476;53.468;9.826;2023-02-01T07:10:39;2.40;;;1.17;;
44165;SDS011;30476;53.468;9.826;2023-02-01T07:13:05;5.47;;;1.90;;
44165;SDS011;30476;53.468;9.826;2023-02-01T07:15:31;20.43;;;2.50;;
44165;SDS011;30476;53.468;9.826;2023-02-01T07:17:57;6.50;;;1.70;;
44165;SDS011;30476;53.468;9.826;2023-02-01T07:20:22;6.60;;;1.97;;
44165;SDS011;30476;53.468;9.826;2023-02-01T07:22:48;13.43;;;1.97;;
44165;SDS011;30476;53.468;9.826;2023-02-01T07:25:19;11.00;;;2.20;;
44165;SDS011;30476;53.468;9.826;2023-02-01T07:27:45;7.80;;;2.33;;
44165;SDS011;30476;53.468;9.826;2023-02-01T07:30:11;10.10;;;3.07;;
44165;SDS011;30476;53.468;9.826;2023-02-01T07:32:37;13.37;;;2.37;;
44165;SDS011;30476;53.468;9.826;2023-02-01T07:35:03;13.93;;;3.17;;
44165;SDS011;30476;53.468;9.826;2023-02-01T07:37:29;16.00;;;3.10;;
44165;SDS011;30476;53.468;9.826;2023-02-01T07:39:56;13.50;;;2.83;;
44165;SDS011;30476;53.468;9.826;2023-02-01T07:42:21;16.10;;;3.50;;
44165;SDS011;30476;53.468;9.826;2023-02-01T07:44:47;11.93;;;2.23;;
44165;SDS011;30476;53.468;9.826;2023-02-01T07:47:13;11.13;;;3.00;;
44165;SDS011;30476;53.468;9.826;2023-02-01T07:49:39;20.33;;;3.37;;
44165;SDS011;30476;53.468;9.826;2023-02-01T07:52:04;17.07;;;3.07;;
44165;SDS011;30476;53.468;9.826;2023-02-01T07:54:30;18.60;;;2.87;;
44165;SDS011;30476;53.468;9.826;2023-02-01T07:56:56;15.23;;;3.33;;
44165;SDS011;30476;53.468;9.826;2023-02-01T07:59:22;13.00;;;2.60;;
44165;SDS011;30476;53.468;9.826;2023-02-01T08:01:47;9.43;;;2.53;;
44165;SDS011;30476;53.468;9.826;2023-02-01T08:04:13;12.13;;;2.53;;
44165;SDS011;30476;53.468;9.826;2023-02-01T08:06:39;13.37;;;2.70;;
44165;SDS011;30476;53.468;9.826;2023-02-01T08:09:05;13.73;;;3.20;;
44165;SDS011;30476;53.468;9.826;2023-02-01T08:11:36;11.90;;;3.40;;
44165;SDS011;30476;53.468;9.826;2023-02-01T08:14:03;14.00;;;3.57;;
44165;SDS011;30476;53.468;9.826;2023-02-01T08:16:30;9.53;;;3.50;;
44165;SDS011;30476;53.468;9.826;2023-02-01T08:18:56;14.83;;;2.40;;
44165;SDS011;30476;53.468;9.826;2023-02-01T08:21:23;14.67;;;2.80;;
44165;SDS011;30476;53.468;9.826;2023-02-01T08:24:02;23.37;;;4.63;;
44165;SDS011;30476;53.468;9.826;2023-02-01T08:26:31;12.60;;;3.10;;
44165;SDS011;30476;53.468;9.826;2023-02-01T08:28:58;14.60;;;2.40;;
44165;SDS011;30476;53.468;9.826;2023-02-01T08:31:26;13.60;;;2.87;;
44165;SDS011;30476;53.468;9.826;2023-02-01T08:33:54;11.47;;;2.83;;
44165;SDS011;30476;53.468;9.826;2023-02-01T08:36:23;14.83;;;3.63;;
44165;SDS011;30476;53.468;9.826;2023-02-01T08:38:49;13.30;;;3.03;;
44165;SDS011;30476;53.468;9.826;2023-02-01T08:41:17;13.17;;;2.70;;
44165;SDS011;30476;53.468;9.826;2023-02-01T08:43:44;19.13;;;2.87;;
44165;SDS011;30476;53.468;9.826;2023-02-01T08:46:10;16.43;;;4.30;;
44165;SDS011;30476;53.468;9.826;2023-02-01T08:48:36;15.90;;;3.67;;
44165;SDS011;30476;53.468;9.826;2023-02-01T08:51:04;11.70;;;3.00;;
44165;SDS011;30476;53.468;9.826;2023-02-01T08:53:31;16.27;;;3.63;;
44165;SDS011;30476;53.468;9.826;2023-02-01T08:55:57;14.40;;;3.10;;
44165;SDS011;30476;53.468;9.826;2023-02-01T08:58:23;21.77;;;2.97;;
44165;SDS011;30476;53.468;9.826;2023-02-01T09:00:49;11.60;;;3.00;;
44165;SDS011;30476;53.468;9.826;2023-02-01T09:03:16;18.70;;;3.30;;
44165;SDS011;30476;53.468;9.826;2023-02-01T09:05:41;16.63;;;4.40;;
44165;SDS011;30476;53.468;9.826;2023-02-01T09:08:08;13.63;;;2.63;;
44165;SDS011;30476;53.468;9.826;2023-02-01T09:10:34;15.73;;;2.93;;
44165;SDS011;30476;53.468;9.826;2023-02-01T09:13:01;14.80;;;3.30;;
44165;SDS011;30476;53.468;9.826;2023-02-01T09:15:28;12.93;;;2.43;;
44165;SDS011;30476;53.468;9.826;2023-02-01T09:17:54;13.70;;;3.27;;
44165;SDS011;30476;53.468;9.826;2023-02-01T09:20:19;11.43;;;2.40;;
44165;SDS011;30476;53.468;9.826;2023-02-01T09:22:49;12.20;;;2.90;;
44165;SDS011;30476;53.468;9.826;2023-02-01T09:25:16;13.33;;;4.13;;
44165;SDS011;30476;53.468;9.826;2023-02-01T09:27:42;9.13;;;2.10;;
44165;SDS011;30476;53.468;9.826;2023-02-01T09:30:08;7.03;;;2.33;;
44165;SDS011;30476;53.468;9.826;2023-02-01T09:32:35;12.33;;;2.93;;
44165;SDS011;30476;53.468;9.826;2023-02-01T09:35:01;13.50;;;2.57;;
44165;SDS011;30476;53.468;9.826;2023-02-01T09:37:27;10.83;;;3.23;;
44165;SDS011;30476;53.468;9.826;2023-02-01T09:39:52;12.63;;;2.53;;
44165;SDS011;30476;53.468;9.826;2023-02-01T09:42:26;11.07;;;3.30;;
44165;SDS011;30476;53.468;9.826;2023-02-01T09:45:40;9.80;;;2.50;;
44165;SDS011;30476;53.468;9.826;2023-02-01T09:48:17;15.50;;;4.03;;
44165;SDS011;30476;53.468;9.826;2023-02-01T09:50:56;12.23;;;3.03;;
44165;SDS011;30476;53.468;9.826;2023-02-01T09:53:43;10.00;;;2.50;;
44165;SDS011;30476;53.468;9.826;2023-02-01T09:56:21;9.77;;;2.00;;
44165;SDS011;30476;53.468;9.826;2023-02-01T09:59:01;14.33;;;3.43;;
44165;SDS011;30476;53.468;9.826;2023-02-01T10:01:36;13.43;;;2.07;;
44165;SDS011;30476;53.468;9.826;2023-02-01T10:04:04;10.10;;;2.70;;
44165;SDS011;30476;53.468;9.826;2023-02-01T10:06:37;10.53;;;2.33;;
44165;SDS011;30476;53.468;9.826;2023-02-01T10:28:44;12.33;;;3.10;;
44165;SDS011;30476;53.468;9.826;2023-02-01T10:31:14;9.83;;;2.10;;
44165;SDS011;30476;53.468;9.826;2023-02-01T10:33:48;8.67;;;2.60;;
44165;SDS011;30476;53.468;9.826;2023-02-01T10:36:40;10.77;;;2.70;;
44165;SDS011;30476;53.468;9.826;2023-02-01T10:39:14;8.73;;;1.90;;
44165;SDS011;30476;53.468;9.826;2023-02-01T10:41:40;7.50;;;2.63;;
44165;SDS011;30476;53.468;9.826;2023-02-01T10:44:11;9.10;;;2.50;;
44165;SDS011;30476;53.468;9.826;2023-02-01T10:46:50;15.50;;;2.77;;
44165;SDS011;30476;53.468;9.826;2023-02-01T10:49:24;14.37;;;2.57;;
44165;SDS011;30476;53.468;9.826;2023-02-01T10:54:44;9.23;;;2.10;;
44165;SDS011;30476;53.468;9.826;2023-02-01T10:57:19;12.07;;;2.20;;
44165;SDS011;30476;53.468;9.826;2023-02-01T10:59:54;10.80;;;2.57;;
44165;SDS011;30476;53.468;9.826;2023-02-01T11:02:29;8.93;;;2.60;;
44165;SDS011;30476;53.468;9.826;2023-02-01T11:04:58;9.67;;;2.30;;
44165;SDS011;30476;53.468;9.826;2023-02-01T11:07:35;13.63;;;3.03;;
44165;SDS011;30476;53.468;9.826;2023-02-01T11:10:02;13.20;;;2.20;;
44165;SDS011;30476;53.468;9.826;2023-02-01T11:12:35;10.60;;;2.33;;
44165;SDS011;30476;53.468;9.826;2023-02-01T11:17:46;10.30;;;2.97;;
44165;SDS011;30476;53.468;9.826;2023-02-01T11:20:26;8.40;;;2.53;;
44165;SDS011;30476;53.468;9.826;2023-02-01T11:23:03;13.40;;;2.70;;
44165;SDS011;30476;53.468;9.826;2023-02-01T11:25:30;14.27;;;2.30;;
44165;SDS011;30476;53.468;9.826;2023-02-01T11:28:00;15.60;;;2.37;;
44165;SDS011;30476;53.468;9.826;2023-02-01T11:30:30;11.73;;;2.17;;
44165;SDS011;30476;53.468;9.826;2023-02-01T11:33:00;8.57;;;1.97;;
44165;SDS011;30476;53.468;9.826;2023-02-01T11:35:28;6.87;;;2.27;;
44165;SDS011;30476;53.468;9.826;2023-02-01T11:37:56;13.90;;;2.23;;
44165;SDS011;30476;53.468;9.826;2023-02-01T11:40:37;7.23;;;2.03;;
44165;SDS011;30476;53.468;9.826;2023-02-01T11:45:38;6.57;;;3.13;;
44165;SDS011;30476;53.468;9.826;2023-02-01T11:48:08;10.07;;;3.60;;
44165;SDS011;30476;53.468;9.826;2023-02-01T11:54:00;3.93;;;1.03;;
44165;SDS011;30476;53.468;9.826;2023-02-01T11:59:36;6.60;;;2.17;;
44165;SDS011;30476;53.468;9.826;2023-02-01T12:05:37;6.63;;;1.73;;
44165;SDS011;30476;53.468;9.826;2023-02-01T12:13:35;6.37;;;1.50;;
44165;SDS011;30476;53.468;9.826;2023-02-01T12:35:21;1.73;;;0.67;;
44165;SDS011;30476;53.468;9.826;2023-02-01T12:46:09;1.37;;;0.50;;
44165;SDS011;30476;53.468;9.826;2023-02-01T12:49:22;1.20;;;0.50;;
44165;SDS011;30476;53.468;9.826;2023-02-01T12:51:58;0.97;;;0.63;;
44165;SDS011;30476;53.468;9.826;2023-02-01T12:54:37;1.00;;;0.87;;
44165;SDS011;30476;53.468;9.826;2023-02-01T13:00:18;1.90;;;0.60;;
44165;SDS011;30476;53.468;9.826;2023-02-01T13:08:23;0.73;;;0.60;;
44165;SDS011;30476;53.468;9.826;2023-02-01T13:11:03;0.90;;;0.60;;
44165;SDS011;30476;53.468;9.826;2023-02-01T13:16:59;3.13;;;0.70;;
44165;SDS011;30476;53.468;9.826;2023-02-01T13:19:29;2.53;;;0.90;;
44165;SDS011;30476;53.468;9.826;2023-02-01T13:22:32;1.50;;;0.50;;
44165;SDS011;30476;53.468;9.826;2023-02-01T13:24:59;0.50;;;0.50;;
44165;SDS011;30476;53.468;9.826;2023-02-01T13:27:29;1.27;;;0.60;;
44165;SDS011;30476;53.468;9.826;2023-02-01T13:30:07;1.07;;;0.90;;
44165;SDS011;30476;53.468;9.826;2023-02-01T13:32:55;0.70;;;0.70;;
44165;SDS011;30476;53.468;9.826;2023-02-01T13:41:25;0.70;;;0.50;;
44165;SDS011;30476;53.468;9.826;2023-02-01T13:43:58;0.63;;;0.60;;
44165;SDS011;30476;53.468;9.826;2023-02-01T13:46:28;0.60;;;0.60;;
44165;SDS011;30476;53.468;9.826;2023-02-01T13:48:59;0.60;;;0.60;;
44165;SDS011;30476;53.468;9.826;2023-02-01T13:51:40;2.20;;;0.50;;
44165;SDS011;30476;53.468;9.826;2023-02-01T13:54:23;2.37;;;0.60;;
44165;SDS011;30476;53.468;9.826;2023-02-01T13:56:55;0.97;;;0.53;;
44165;SDS011;30476;53.468;9.826;2023-02-01T13:59:37;1.07;;;0.60;;
44165;SDS011;30476;53.468;9.826;2023-02-01T14:05:09;1.23;;;0.60;;
44165;SDS011;30476;53.468;9.826;2023-02-01T14:07:36;3.60;;;0.80;;
44165;SDS011;30476;53.468;9.826;2023-02-01T14:10:47;1.23;;;0.80;;
44165;SDS011;30476;53.468;9.826;2023-02-01T14:26:45;5.43;;;2.40;;
44165;SDS011;30476;53.468;9.826;2023-02-01T14:32:04;4.80;;;1.30;;
44165;SDS011;30476;53.468;9.826;2023-02-01T14:42:20;2.00;;;0.80;;
44165;SDS011;30476;53.468;9.826;2023-02-01T14:50:25;1.67;;;0.80;;
44165;SDS011;30476;53.468;9.826;2023-02-01T14:58:09;4.83;;;0.80;;
44165;SDS011;30476;53.468;9.826;2023-02-01T15:00:50;3.70;;;0.83;;
44165;SDS011;30476;53.468;9.826;2023-02-01T15:06:02;3.33;;;1.00;;
44165;SDS011;30476;53.468;9.826;2023-02-01T15:08:32;1.67;;;0.90;;
44165;SDS011;30476;53.468;9.826;2023-02-01T15:11:03;1.50;;;0.90;;
44165;SDS011;30476;53.468;9.826;2023-02-01T15:13:34;3.60;;;1.20;;
44165;SDS011;30476;53.468;9.826;2023-02-01T15:16:13;2.23;;;1.10;;
44165;SDS011;30476;53.468;9.826;2023-02-01T15:18:41;8.00;;;1.20;;
44165;SDS011;30476;53.468;9.826;2023-02-01T15:21:15;2.80;;;1.77;;
44165;SDS011;30476;53.468;9.826;2023-02-01T15:23:44;5.77;;;1.23;;
44165;SDS011;30476;53.468;9.826;2023-02-01T15:26:29;3.83;;;1.30;;
44165;SDS011;30476;53.468;9.826;2023-02-01T15:28:59;4.73;;;1.30;;
44165;SDS011;30476;53.468;9.826;2023-02-01T15:31:32;8.70;;;3.20;;
44165;SDS011;30476;53.468;9.826;2023-02-01T15:33:59;2.27;;;1.20;;
44165;SDS011;30476;53.468;9.826;2023-02-01T15:36:25;5.90;;;1.57;;
44165;SDS011;30476;53.468;9.826;2023-02-01T15:39:13;6.63;;;1.80;;
44165;SDS011;30476;53.468;9.826;2023-02-01T15:41:52;6.40;;;1.53;;
44165;SDS011;30476;53.468;9.826;2023-02-01T15:44:41;8.40;;;2.30;;
44165;SDS011;30476;53.468;9.826;2023-02-01T15:49:53;4.83;;;2.60;;
44165;SDS011;30476;53.468;9.826;2023-02-01T15:55:00;7.50;;;2.13;;
44165;SDS011;30476;53.468;9.826;2023-02-01T15:57:34;5.07;;;1.57;;
44165;SDS011;30476;53.468;9.826;2023-02-01T16:00:07;5.40;;;1.73;;
44165;SDS011;30476;53.468;9.826;2023-02-01T16:02:58;14.07;;;2.53;;
44165;SDS011;30476;53.468;9.826;2023-02-01T16:05:39;8.20;;;2.23;;
44165;SDS011;30476;53.468;9.826;2023-02-01T16:10:47;7.20;;;2.10;;
44165;SDS011;30476;53.468;9.826;2023-02-01T16:13:16;6.17;;;2.00;;
44165;SDS011;30476;53.468;9.826;2023-02-01T16:15:43;12.43;;;2.73;;
44165;SDS011;30476;53.468;9.826;2023-02-01T16:18:10;11.40;;;3.30;;
44165;SDS011;30476;53.468;9.826;2023-02-01T16:20:37;14.73;;;3.50;;
44165;SDS011;30476;53.468;9.826;2023-02-01T16:23:04;16.33;;;4.47;;
44165;SDS011;30476;53.468;9.826;2023-02-01T16:25:31;10.07;;;2.57;;
44165;SDS011;30476;53.468;9.826;2023-02-01T16:27:57;11.17;;;2.87;;
44165;SDS011;30476;53.468;9.826;2023-02-01T16:30:23;9.23;;;2.77;;
44165;SDS011;30476;53.468;9.826;2023-02-01T16:32:53;15.73;;;3.33;;
44165;SDS011;30476;53.468;9.826;2023-02-01T16:37:51;10.30;;;2.77;;
44165;SDS011;30476;53.468;9.826;2023-02-01T16:40:17;10.90;;;2.93;;
44165;SDS011;30476;53.468;9.826;2023-02-01T16:42:45;16.07;;;2.90;;
44165;SDS011;30476;53.468;9.826;2023-02-01T16:45:13;16.90;;;6.80;;
44165;SDS011;30476;53.468;9.826;2023-02-01T16:47:39;21.17;;;4.13;;
44165;SDS011;30476;53.468;9.826;2023-02-01T16:50:17;10.57;;;3.60;;
44165;SDS011;30476;53.468;9.826;2023-02-01T16:52:46;13.03;;;3.67;;
44165;SDS011;30476;53.468;9.826;2023-02-01T16:55:12;16.07;;;3.53;;
44165;SDS011;30476;53.468;9.826;2023-02-01T16:57:39;19.37;;;4.33;;
44165;SDS011;30476;53.468;9.826;2023-02-01T17:00:05;17.50;;;3.80;;
44165;SDS011;30476;53.468;9.826;2023-02-01T17:02:34;7.37;;;2.80;;
44165;SDS011;30476;53.468;9.826;2023-02-01T17:04:59;13.40;;;2.90;;
44165;SDS011;30476;53.468;9.826;2023-02-01T17:07:25;14.20;;;3.83;;
44165;SDS011;30476;53.468;9.826;2023-02-01T17:09:52;17.33;;;2.67;;
44165;SDS011;30476;53.468;9.826;2023-02-01T17:12:22;10.87;;;4.13;;
44165;SDS011;30476;53.468;9.826;2023-02-01T17:14:52;20.87;;;3.10;;
44165;SDS011;30476;53.468;9.826;2023-02-01T17:17:19;11.27;;;2.43;;
44165;SDS011;30476;53.468;9.826;2023-02-01T17:19:46;17.53;;;4.00;;
44165;SDS011;30476;53.468;9.826;2023-02-01T17:22:17;15.00;;;3.97;;
44165;SDS011;30476;53.468;9.826;2023-02-01T17:24:43;13.87;;;3.13;;
44165;SDS011;30476;53.468;9.826;2023-02-01T17:27:10;13.50;;;2.90;;
44165;SDS011;30476;53.468;9.826;2023-02-01T17:29:36;17.30;;;5.77;;
44165;SDS011;30476;53.468;9.826;2023-02-01T17:32:02;11.17;;;3.30;;
44165;SDS011;30476;53.468;9.826;2023-02-01T17:34:29;10.87;;;4.27;;
44165;SDS011;30476;53.468;9.826;2023-02-01T17:36:55;17.37;;;2.77;;
44165;SDS011;30476;53.468;9.826;2023-02-01T17:39:21;8.60;;;2.20;;
44165;SDS011;30476;53.468;9.826;2023-02-01T17:42:08;12.43;;;2.93;;
44165;SDS011;30476;53.468;9.826;2023-02-01T17:44:35;7.83;;;2.43;;
44165;SDS011;30476;53.468;9.826;2023-02-01T17:47:01;16.13;;;6.00;;
44165;SDS011;30476;53.468;9.826;2023-02-01T17:49:27;20.03;;;5.33;;
44165;SDS011;30476;53.468;9.826;2023-02-01T17:51:53;10.03;;;2.73;;
44165;SDS011;30476;53.468;9.826;2023-02-01T17:54:20;12.17;;;5.37;;